Time;durP1;ratioP1;P1;durP2;ratioP2;P2;SDS_P1;SDS_P2;PMS_P1;PMS_P2;Temp;Humidity;BMP_temperature;BMP_pressure;BME280_temperature;BME280_humidity;BME280_pressure;Samples;Min_cycle;Max_cycle;Signal;HPM_P1;HPM_P2
2021/12/30 00:02:20;;;;;;;6.53;2.43;;;-12.70;99.30;;;;;;2216916;64;20104;-34
2021/12/30 00:04:47;;;;;;;6.57;2.60;;;-12.70;98.80;;;;;;2217082;64;20093;-36
2021/12/30 00:07:13;;;;;;;10.37;3.43;;;-12.70;99.10;;;;;;2216243;64;20189;-33
2021/12/30 00:09:40;;;;;;;11.53;2.67;;;-12.70;99.00;;;;;;2216396;64;20085;-33
2021/12/30 00:12:06;;;;;;;7.60;2.80;;;-12.80;98.80;;;;;;2216820;64;20081;-34
2021/12/30 00:14:33;;;;;;;11.67;4.63;;;-12.80;98.70;;;;;;2216855;64;20077;-33
2021/12/30 00:16:59;;;;;;;13.70;4.10;;;-12.70;98.40;;;;;;2216835;64;20587;-35
2021/12/30 00:19:26;;;;;;;8.50;3.63;;;-12.70;98.50;;;;;;2217000;64;20077;-35
2021/12/30 00:21:52;;;;;;;6.67;2.07;;;-12.80;98.40;;;;;;2216881;64;20096;-34
2021/12/30 00:24:19;;;;;;;3.80;1.80;;;-12.80;98.60;;;;;;2216950;64;20078;-33
2021/12/30 00:26:45;;;;;;;6.13;2.50;;;-12.80;98.80;;;;;;2220060;64;20096;-34
2021/12/30 00:29:11;;;;;;;10.23;4.27;;;-12.90;99.00;;;;;;2220756;64;20257;-37
2021/12/30 00:31:38;;;;;;;7.90;2.77;;;-12.80;99.10;;;;;;2220590;64;20120;-33
2021/12/30 00:34:04;;;;;;;2.13;1.33;;;-12.90;98.80;;;;;;2220569;64;20131;-39
2021/12/30 00:36:31;;;;;;;8.37;2.07;;;-12.90;98.80;;;;;;2220701;64;20177;-34
2021/12/30 00:38:57;;;;;;;5.43;2.00;;;-12.80;98.70;;;;;;2220769;64;20481;-34
2021/12/30 00:41:23;;;;;;;4.23;1.43;;;-12.80;98.50;;;;;;2220852;64;20084;-35
2021/12/30 00:43:50;;;;;;;7.97;2.73;;;-12.80;98.70;;;;;;2220639;64;20093;-33
2021/12/30 00:46:16;;;;;;;8.07;2.77;;;-12.80;98.70;;;;;;2220520;64;20568;-36
2021/12/30 00:48:43;;;;;;;13.63;4.63;;;-12.80;98.60;;;;;;2218853;64;20164;-33
2021/12/30 00:51:09;;;;;;;10.50;4.77;;;-12.70;98.50;;;;;;2218857;64;20112;-35
2021/12/30 00:53:36;;;;;;;8.17;3.90;;;-12.70;98.50;;;;;;2218886;64;20111;-34
2021/12/30 00:56:02;;;;;;;7.07;3.57;;;-12.70;98.70;;;;;;2219019;64;20092;-33
2021/12/30 00:58:29;;;;;;;16.23;4.23;;;-12.60;98.90;;;;;;2219011;64;20089;-35
2021/12/30 01:00:55;;;;;;;4.27;2.17;;;-12.70;99.00;;;;;;2218791;64;20145;-34
2021/12/30 01:03:22;;;;;;;10.33;4.37;;;-12.60;99.20;;;;;;2219061;64;20092;-33
2021/12/30 01:05:49;;;;;;;8.23;3.53;;;-12.60;99.30;;;;;;2218903;64;20095;-33
2021/12/30 01:08:15;;;;;;;6.47;2.80;;;-12.60;99.20;;;;;;2219082;64;20567;-33
2021/12/30 01:10:42;;;;;;;8.00;2.30;;;-12.60;98.90;;;;;;2218948;64;20170;-33
2021/12/30 01:13:15;;;;;;;5.60;1.50;;;-12.60;98.50;;;;;;2215656;64;20108;-33
2021/12/30 01:15:48;;;;;;;9.10;4.10;;;-12.70;98.60;;;;;;2218708;64;20205;-34
2021/12/30 01:18:28;;;;;;;14.07;6.20;;;-12.80;98.50;;;;;;2218981;64;20124;-34
2021/12/30 01:20:54;;;;;;;6.97;2.63;;;-12.70;99.10;;;;;;2218693;64;20126;-34
2021/12/30 01:23:21;;;;;;;7.10;2.83;;;-12.70;98.80;;;;;;2218930;64;20166;-33
2021/12/30 01:25:47;;;;;;;6.33;2.20;;;-12.70;98.40;;;;;;2219818;64;20549;-34
2021/12/30 01:28:13;;;;;;;1.50;1.33;;;-12.70;98.40;;;;;;2220826;64;20093;-33
2021/12/30 01:30:40;;;;;;;4.67;1.57;;;-12.70;98.70;;;;;;2221086;64;20084;-35
2021/12/30 01:33:06;;;;;;;7.50;3.17;;;-12.60;98.90;;;;;;2220947;64;20103;-34
2021/12/30 01:35:33;;;;;;;11.57;5.63;;;-12.50;99.40;;;;;;2220976;64;20576;-34
2021/12/30 01:38:01;;;;;;;10.57;3.80;;;-12.40;99.50;;;;;;2221221;64;20537;-34
2021/12/30 01:40:29;;;;;;;7.10;1.90;;;-12.40;99.50;;;;;;2220805;64;20077;-37
2021/12/30 01:42:55;;;;;;;2.90;1.63;;;-12.30;99.40;;;;;;2221078;64;20444;-38
2021/12/30 01:45:21;;;;;;;2.93;1.47;;;-12.40;98.90;;;;;;2220754;64;20160;-34
2021/12/30 01:47:53;;;;;;;2.53;0.80;;;-12.50;98.50;;;;;;2220762;64;20495;-33
2021/12/30 01:50:20;;;;;;;8.23;2.23;;;-12.40;98.50;;;;;;2220549;64;20092;-33
2021/12/30 01:52:46;;;;;;;3.67;1.77;;;-12.40;98.40;;;;;;2220538;64;20176;-34
2021/12/30 01:55:13;;;;;;;3.77;1.63;;;-12.40;98.40;;;;;;2220795;64;20178;-35
2021/12/30 01:57:40;;;;;;;6.47;2.30;;;-12.30;98.50;;;;;;2220446;64;20104;-33
2021/12/30 02:00:08;;;;;;;2.97;1.10;;;-12.20;98.20;;;;;;2220943;64;20090;-38
2021/12/30 02:02:35;;;;;;;7.50;2.27;;;-12.30;98.40;;;;;;2221264;64;20590;-34
2021/12/30 02:05:01;;;;;;;8.07;2.73;;;-12.20;98.30;;;;;;2223626;64;20081;-33
2021/12/30 02:07:28;;;;;;;5.63;1.90;;;-12.20;98.40;;;;;;2221253;64;20101;-33
2021/12/30 02:10:00;;;;;;;9.13;1.70;;;-12.20;98.20;;;;;;2221077;64;20602;-33
2021/12/30 02:12:27;;;;;;;5.07;1.60;;;-12.20;98.20;;;;;;2221224;64;20095;-33
2021/12/30 02:14:54;;;;;;;2.40;1.20;;;-12.20;98.40;;;;;;2220550;64;20178;-35
2021/12/30 02:17:20;;;;;;;0.83;0.47;;;-12.10;98.50;;;;;;2221289;64;20468;-34
2021/12/30 02:19:47;;;;;;;2.83;0.67;;;-12.10;98.60;;;;;;2221200;64;20077;-34
2021/12/30 02:22:13;;;;;;;3.37;1.40;;;-12.00;98.80;;;;;;2221254;64;20103;-34
2021/12/30 02:24:46;;;;;;;2.73;1.53;;;-12.00;98.50;;;;;;2220995;64;20093;-35
2021/12/30 02:27:13;;;;;;;7.00;1.90;;;-12.00;98.70;;;;;;2217274;64;20101;-33
2021/12/30 02:29:39;;;;;;;1.77;0.70;;;-11.90;98.60;;;;;;2217205;64;20548;-34
2021/12/30 02:32:06;;;;;;;0.77;0.60;;;-11.90;98.50;;;;;;2217317;64;20097;-34
2021/12/30 02:34:32;;;;;;;4.93;1.57;;;-11.90;98.60;;;;;;2217253;64;20437;-36
2021/12/30 02:36:59;;;;;;;4.70;1.47;;;-11.90;98.70;;;;;;2217040;64;20089;-36
2021/12/30 02:39:25;;;;;;;1.13;0.60;;;-11.80;98.60;;;;;;2216975;64;20542;-34
2021/12/30 02:41:52;;;;;;;2.13;1.70;;;-11.80;98.70;;;;;;2217235;64;20162;-37
2021/12/30 02:44:18;;;;;;;3.13;2.00;;;-11.80;98.70;;;;;;2217085;64;20093;-33
2021/12/30 02:46:52;;;;;;;3.37;1.20;;;-11.70;98.70;;;;;;2213258;64;20101;-34
2021/12/30 02:49:18;;;;;;;4.50;1.30;;;-11.70;98.60;;;;;;2216608;64;20107;-35
2021/12/30 02:51:45;;;;;;;5.27;1.80;;;-11.70;98.80;;;;;;2216930;64;20170;-35
2021/12/30 02:54:11;;;;;;;6.10;2.23;;;-11.70;98.80;;;;;;2217079;64;20108;-34
2021/12/30 02:56:38;;;;;;;6.00;1.90;;;-11.60;98.90;;;;;;2216984;64;20174;-34
2021/12/30 02:59:05;;;;;;;1.00;0.50;;;-11.60;98.70;;;;;;2217070;64;20599;-34
2021/12/30 03:01:32;;;;;;;2.43;0.93;;;-11.60;98.80;;;;;;2217047;64;20093;-33
2021/12/30 03:04:00;;;;;;;3.60;1.07;;;-11.50;98.60;;;;;;2216956;64;20081;-34
2021/12/30 03:06:27;;;;;;;0.53;0.53;;;-11.50;98.80;;;;;;2216743;64;20116;-33
2021/12/30 03:08:53;;;;;;;2.07;1.43;;;-11.50;98.90;;;;;;2216975;64;20085;-35
2021/12/30 03:11:20;;;;;;;6.80;2.90;;;-11.50;98.60;;;;;;2216917;64;20105;-34
2021/12/30 03:13:47;;;;;;;0.17;0.17;;;-11.60;98.70;;;;;;2216866;64;20085;-35
2021/12/30 03:16:16;;;;;;;1.70;1.13;;;-11.60;98.80;;;;;;2216977;64;20089;-35
2021/12/30 03:18:44;;;;;;;4.00;0.90;;;-11.60;98.90;;;;;;2216090;64;20088;-39
2021/12/30 03:21:12;;;;;;;0.23;0.23;;;-11.50;98.90;;;;;;2216300;64;20097;-40
2021/12/30 03:23:39;;;;;;;7.00;2.07;;;-11.50;98.90;;;;;;2216891;64;20549;-34
2021/12/30 03:26:06;;;;;;;6.87;2.20;;;-11.50;99.30;;;;;;2218544;64;20269;-34
2021/12/30 03:28:33;;;;;;;2.43;0.63;;;-11.50;99.10;;;;;;2220851;64;20093;-35
2021/12/30 03:30:59;;;;;;;6.37;2.67;;;-11.50;99.20;;;;;;2220732;64;20085;-34
2021/12/30 03:33:29;;;;;;;11.90;3.80;;;-11.50;99.00;;;;;;2220700;64;20181;-34
2021/12/30 03:35:59;;;;;;;2.63;0.77;;;-11.50;99.00;;;;;;2220714;64;20107;-35
2021/12/30 03:38:29;;;;;;;6.90;1.83;;;-11.50;98.80;;;;;;2220630;64;20096;-34
2021/12/30 03:40:55;;;;;;;4.87;1.87;;;-11.50;98.70;;;;;;2220916;64;20111;-34
2021/12/30 03:43:22;;;;;;;4.90;1.90;;;-11.40;98.80;;;;;;2220551;64;20093;-33
2021/12/30 03:45:48;;;;;;;5.37;2.27;;;-11.40;98.40;;;;;;2220947;64;20088;-34
2021/12/30 03:48:15;;;;;;;6.17;2.30;;;-11.40;98.40;;;;;;2220721;64;20100;-34
2021/12/30 03:50:44;;;;;;;0.33;0.33;;;-11.40;98.70;;;;;;2220766;64;20116;-33
2021/12/30 03:53:14;;;;;;;6.30;2.67;;;-11.40;98.90;;;;;;2220806;64;20088;-34
2021/12/30 03:55:41;;;;;;;6.70;1.77;;;-11.40;98.60;;;;;;2220265;64;20160;-34
2021/12/30 03:58:07;;;;;;;1.10;0.87;;;-11.40;98.80;;;;;;2220747;64;20084;-35
2021/12/30 04:00:34;;;;;;;5.60;2.07;;;-11.30;98.40;;;;;;2220754;64;20099;-34
2021/12/30 04:03:00;;;;;;;10.77;4.37;;;-11.40;98.70;;;;;;2220483;64;20077;-35
2021/12/30 04:05:27;;;;;;;5.23;2.03;;;-11.30;99.30;;;;;;2220885;64;20103;-34
2021/12/30 04:07:53;;;;;;;7.70;2.83;;;-11.30;98.80;;;;;;2220651;64;20115;-34
2021/12/30 04:10:23;;;;;;;8.90;3.00;;;-11.40;98.60;;;;;;2220831;64;20230;-37
2021/12/30 04:12:51;;;;;;;8.47;2.60;;;-11.30;99.10;;;;;;2220593;64;20598;-35
2021/12/30 04:15:17;;;;;;;8.27;2.47;;;-11.30;99.10;;;;;;2220707;64;20099;-34
2021/12/30 04:17:44;;;;;;;12.37;3.67;;;-11.30;99.00;;;;;;2220504;64;20453;-37
2021/12/30 04:20:12;;;;;;;7.97;2.73;;;-11.30;99.10;;;;;;2220306;64;20089;-34
2021/12/30 04:22:39;;;;;;;4.73;2.40;;;-11.20;99.20;;;;;;2220639;64;20168;-34
2021/12/30 04:25:07;;;;;;;2.00;1.43;;;-11.10;99.30;;;;;;2220753;64;20085;-33
2021/12/30 04:27:33;;;;;;;6.77;3.60;;;-11.10;99.30;;;;;;2220709;64;20526;-34
2021/12/30 04:30:00;;;;;;;4.27;1.37;;;-11.10;99.40;;;;;;2220716;64;20112;-33
2021/12/30 04:32:26;;;;;;;5.33;1.93;;;-11.00;99.40;;;;;;2220749;64;20080;-37
2021/12/30 04:34:53;;;;;;;8.90;4.33;;;-11.00;99.40;;;;;;2220559;64;20128;-34
2021/12/30 04:37:19;;;;;;;5.50;1.90;;;-10.90;99.70;;;;;;2220275;64;20166;-34
2021/12/30 04:39:46;;;;;;;4.17;1.13;;;-11.00;99.20;;;;;;2220668;64;20166;-35
2021/12/30 04:42:13;;;;;;;6.63;3.37;;;-11.10;98.80;;;;;;2220643;64;20104;-35
2021/12/30 04:44:39;;;;;;;7.53;3.23;;;-11.20;99.00;;;;;;2220834;64;20569;-34
2021/12/30 04:47:06;;;;;;;7.67;3.27;;;-11.00;99.40;;;;;;2220699;64;20560;-33
2021/12/30 04:49:33;;;;;;;7.37;3.10;;;-11.10;99.10;;;;;;2220853;64;20170;-33
2021/12/30 04:52:00;;;;;;;4.17;2.00;;;-11.10;99.30;;;;;;2220835;64;20088;-36
2021/12/30 04:54:26;;;;;;;3.67;1.40;;;-11.10;99.20;;;;;;2220435;64;20468;-33
2021/12/30 04:56:54;;;;;;;7.23;2.93;;;-11.20;98.80;;;;;;2220395;64;20505;-34
2021/12/30 04:59:22;;;;;;;6.17;2.67;;;-11.20;98.90;;;;;;2220617;64;20116;-37
2021/12/30 05:01:51;;;;;;;3.90;1.07;;;-11.30;99.00;;;;;;2220418;64;20092;-36
2021/12/30 05:04:19;;;;;;;13.60;6.10;;;-11.20;99.20;;;;;;2220568;64;20100;-36
2021/12/30 05:06:48;;;;;;;3.40;0.73;;;-11.20;99.10;;;;;;2220424;64;20107;-38
2021/12/30 05:09:16;;;;;;;12.57;1.00;;;-11.30;99.30;;;;;;2220734;64;20092;-38
2021/12/30 05:11:45;;;;;;;1.97;1.20;;;-11.20;99.30;;;;;;2220596;64;20129;-40
2021/12/30 05:14:16;;;;;;;7.03;1.70;;;-11.10;99.20;;;;;;2220368;64;20173;-40
2021/12/30 05:16:45;;;;;;;8.90;2.40;;;-11.20;98.90;;;;;;2220508;64;20111;-36
2021/12/30 05:19:13;;;;;;;6.97;2.77;;;-11.20;99.40;;;;;;2220539;64;20088;-35
2021/12/30 05:21:41;;;;;;;3.23;0.90;;;-11.10;99.50;;;;;;2220438;64;20572;-40
2021/12/30 05:24:09;;;;;;;7.67;2.60;;;-11.00;99.50;;;;;;2220683;64;20081;-36
2021/12/30 05:26:36;;;;;;;2.77;1.20;;;-11.10;99.40;;;;;;2220246;64;20586;-36
2021/12/30 05:29:07;;;;;;;5.10;1.20;;;-11.20;99.50;;;;;;2219903;64;20246;-37
2021/12/30 05:31:36;;;;;;;3.67;1.43;;;-11.20;99.90;;;;;;2220322;64;20084;-40
2021/12/30 05:34:05;;;;;;;4.77;1.70;;;-11.20;99.40;;;;;;2220593;64;20111;-35
2021/12/30 05:36:34;;;;;;;1.80;1.37;;;-11.20;99.40;;;;;;2220233;64;20076;-36
2021/12/30 05:39:05;;;;;;;3.93;2.03;;;-11.30;99.20;;;;;;2219803;64;20092;-37
2021/12/30 05:41:42;;;;;;;3.07;0.80;;;-11.30;99.30;;;;;;2220284;64;20116;-41
2021/12/30 05:44:19;;;;;;;4.57;1.63;;;-11.40;99.10;;;;;;2220638;64;20080;-36
2021/12/30 05:46:48;;;;;;;5.43;2.43;;;-11.30;99.50;;;;;;2220261;64;20160;-37
2021/12/30 05:49:17;;;;;;;9.00;3.00;;;-11.30;99.10;;;;;;2220523;64;20077;-36
2021/12/30 05:51:44;;;;;;;2.53;1.33;;;-11.20;98.80;;;;;;2220362;64;20077;-36
2021/12/30 05:54:13;;;;;;;2.93;1.20;;;-11.30;98.90;;;;;;2220204;64;20587;-35
2021/12/30 05:56:42;;;;;;;5.47;1.73;;;-11.20;98.80;;;;;;2214482;64;20097;-36
2021/12/30 05:59:12;;;;;;;1.70;0.87;;;-11.10;98.40;;;;;;2214541;64;20081;-37
2021/12/30 06:01:42;;;;;;;4.73;1.80;;;-11.20;98.40;;;;;;2214609;64;20077;-36
2021/12/30 06:04:11;;;;;;;4.13;1.30;;;-11.10;98.60;;;;;;2214772;64;20460;-36
2021/12/30 06:06:39;;;;;;;4.03;1.67;;;-11.10;98.60;;;;;;2214684;64;20347;-36
2021/12/30 06:09:07;;;;;;;2.13;0.63;;;-11.10;98.40;;;;;;2214703;64;20097;-41
2021/12/30 06:11:35;;;;;;;6.07;1.93;;;-11.10;98.80;;;;;;2214564;64;20116;-37
2021/12/30 06:14:10;;;;;;;2.93;0.67;;;-10.90;98.40;;;;;;2211685;64;20088;-36
2021/12/30 06:16:45;;;;;;;16.03;3.73;;;-10.90;98.30;;;;;;2214523;64;20152;-37
2021/12/30 06:19:14;;;;;;;6.87;1.73;;;-10.90;98.50;;;;;;2211445;64;20085;-37
2021/12/30 06:21:43;;;;;;;9.07;2.43;;;-10.90;98.60;;;;;;2214684;64;20763;-35
2021/12/30 06:24:12;;;;;;;34.90;4.20;;;-11.00;98.60;;;;;;2214869;64;20097;-36
2021/12/30 06:26:41;;;;;;;6.73;2.70;;;-11.00;98.80;;;;;;2214428;64;20587;-38
2021/12/30 06:29:10;;;;;;;1.90;0.67;;;-10.80;98.80;;;;;;2214758;64;20081;-45
2021/12/30 06:31:40;;;;;;;8.63;2.30;;;-10.80;98.70;;;;;;2214332;64;20648;-36
2021/12/30 06:34:08;;;;;;;10.30;2.90;;;-10.70;98.50;;;;;;2217042;64;20096;-38
2021/12/30 06:36:39;;;;;;;2.83;1.83;;;-10.70;98.60;;;;;;2214363;64;20097;-38
2021/12/30 06:39:07;;;;;;;8.30;2.10;;;-10.70;98.70;;;;;;2214490;64;20124;-37
2021/12/30 06:41:34;;;;;;;11.37;4.97;;;-10.70;98.90;;;;;;2214897;64;20085;-36
2021/12/30 06:44:03;;;;;;;5.17;1.43;;;-10.70;98.90;;;;;;2215356;64;20081;-39
2021/12/30 06:46:31;;;;;;;2.80;1.60;;;-10.80;98.70;;;;;;2215183;64;20625;-37
2021/12/30 06:49:01;;;;;;;10.13;2.63;;;-10.70;99.20;;;;;;2215372;64;20157;-38
2021/12/30 06:51:34;;;;;;;8.60;2.93;;;-10.80;98.90;;;;;;2215286;64;20116;-38
2021/12/30 06:54:03;;;;;;;3.05;1.70;;;-10.60;99.10;;;;;;2215039;64;20116;-41
2021/12/30 06:56:30;;;;;;;9.13;2.17;;;-10.70;99.20;;;;;;2215083;64;20104;-37
2021/12/30 06:59:02;;;;;;;6.00;2.17;;;-10.60;98.90;;;;;;2212030;64;20119;-38
2021/12/30 07:01:29;;;;;;;4.30;2.00;;;-10.70;99.20;;;;;;2215104;64;20093;-43
2021/12/30 07:03:57;;;;;;;6.60;2.27;;;-10.60;99.10;;;;;;2215299;64;20446;-37
2021/12/30 07:06:25;;;;;;;6.77;1.87;;;-10.50;99.00;;;;;;2215116;64;20146;-37
2021/12/30 07:08:53;;;;;;;3.60;1.07;;;-10.50;98.70;;;;;;2215457;64;20093;-36
2021/12/30 07:11:19;;;;;;;9.70;4.20;;;-10.50;98.70;;;;;;2215307;64;20575;-37
2021/12/30 07:13:46;;;;;;;7.13;2.93;;;-10.60;99.10;;;;;;2217176;64;20097;-37
2021/12/30 07:16:12;;;;;;;5.83;1.93;;;-10.60;99.00;;;;;;2220431;64;20069;-38
2021/12/30 07:18:44;;;;;;;5.93;1.60;;;-10.40;98.90;;;;;;2220286;64;20182;-36
2021/12/30 07:21:13;;;;;;;9.50;2.30;;;-10.40;98.90;;;;;;2220863;64;20555;-36
2021/12/30 07:23:42;;;;;;;3.63;1.53;;;-10.50;99.10;;;;;;2220758;64;20464;-37
2021/12/30 07:26:10;;;;;;;4.17;1.43;;;-10.40;99.00;;;;;;2220707;64;20092;-36
2021/12/30 07:28:37;;;;;;;7.10;2.97;;;-10.40;99.00;;;;;;2220701;64;20598;-39
2021/12/30 07:31:06;;;;;;;5.10;1.57;;;-10.40;98.80;;;;;;2220552;64;20081;-36
2021/12/30 07:33:33;;;;;;;3.73;1.90;;;-10.30;98.60;;;;;;2220693;64;20092;-37
2021/12/30 07:35:59;;;;;;;5.33;3.07;;;-10.20;98.80;;;;;;2220707;64;20103;-38
2021/12/30 07:38:26;;;;;;;4.77;2.60;;;-10.30;98.70;;;;;;2220629;64;20115;-42
2021/12/30 07:40:52;;;;;;;2.80;1.17;;;-10.10;98.80;;;;;;2220802;64;20069;-42
2021/12/30 07:43:19;;;;;;;2.33;1.23;;;-10.10;98.80;;;;;;2220595;64;20111;-36
2021/12/30 07:45:46;;;;;;;1.30;0.53;;;-10.10;98.50;;;;;;2220684;64;20115;-35
2021/12/30 07:48:15;;;;;;;4.67;1.77;;;-10.10;98.50;;;;;;2220677;64;20508;-37
2021/12/30 07:50:41;;;;;;;2.87;1.30;;;-10.00;98.30;;;;;;2220573;64;20184;-38
2021/12/30 07:53:08;;;;;;;5.37;2.30;;;-9.90;98.30;;;;;;2220513;64;20468;-38
2021/12/30 07:55:35;;;;;;;3.07;1.30;;;-10.00;98.40;;;;;;2220470;64;20148;-36
2021/12/30 07:58:08;;;;;;;9.57;2.77;;;-10.00;98.40;;;;;;2220028;64;20548;-36
2021/12/30 08:00:37;;;;;;;3.20;1.40;;;-9.90;98.10;;;;;;2220396;64;20460;-40
2021/12/30 08:03:06;;;;;;;4.03;0.83;;;-9.90;98.20;;;;;;2220664;64;20570;-36
2021/12/30 08:05:35;;;;;;;5.37;1.97;;;-9.80;98.10;;;;;;2220446;64;20477;-37
2021/12/30 08:08:04;;;;;;;3.83;1.27;;;-9.90;98.30;;;;;;2220739;64;20097;-36
2021/12/30 08:10:32;;;;;;;0.47;0.40;;;-9.80;98.50;;;;;;2220542;64;20076;-38
2021/12/30 08:13:01;;;;;;;8.77;3.27;;;-9.70;98.40;;;;;;2220544;64;20093;-40
2021/12/30 08:15:46;;;;;;;7.57;2.17;;;-9.60;98.50;;;;;;2216852;64;20108;-36
2021/12/30 08:18:13;;;;;;;8.53;3.03;;;-9.50;99.00;;;;;;2220419;64;20100;-37
2021/12/30 08:20:40;;;;;;;2.47;1.00;;;-9.50;98.90;;;;;;2220625;64;20608;-38
2021/12/30 08:23:08;;;;;;;6.90;2.43;;;-9.40;98.90;;;;;;2220440;64;20085;-36
2021/12/30 08:25:34;;;;;;;5.50;2.40;;;-9.30;98.50;;;;;;2219954;64;20549;-35
2021/12/30 08:28:02;;;;;;;2.23;1.37;;;-9.20;98.50;;;;;;2220509;64;20166;-40
2021/12/30 08:30:32;;;;;;;4.93;2.33;;;-9.20;98.20;;;;;;2219843;64;20728;-37
2021/12/30 08:33:00;;;;;;;2.20;1.00;;;-9.20;98.10;;;;;;2220306;64;20591;-47
2021/12/30 08:35:30;;;;;;;7.57;1.40;;;-9.10;98.30;;;;;;2220474;64;20104;-35
2021/12/30 08:37:59;;;;;;;7.90;2.47;;;-9.10;97.90;;;;;;2220245;64;20100;-41
2021/12/30 08:40:25;;;;;;;4.90;2.33;;;-9.10;98.20;;;;;;2220720;64;20088;-36
2021/12/30 08:42:54;;;;;;;2.03;0.93;;;-9.00;97.80;;;;;;2214466;64;20520;-36
2021/12/30 08:45:24;;;;;;;7.80;2.87;;;-9.00;97.90;;;;;;2211648;64;20097;-36
2021/12/30 08:47:56;;;;;;;6.13;2.50;;;-8.80;99.10;;;;;;2214819;64;20093;-36
2021/12/30 08:50:24;;;;;;;4.43;2.33;;;-8.90;99.00;;;;;;2215114;64;20549;-36
2021/12/30 08:52:54;;;;;;;6.57;3.30;;;-8.70;99.30;;;;;;2214726;64;20538;-35
2021/12/30 08:55:27;;;;;;;10.57;2.87;;;-8.70;99.20;;;;;;2214909;64;20107;-37
2021/12/30 08:57:57;;;;;;;6.17;2.83;;;-8.50;99.90;;;;;;2214844;64;20085;-35
2021/12/30 09:00:27;;;;;;;7.50;3.23;;;-8.30;99.90;;;;;;2215173;64;20096;-38
2021/12/30 09:02:56;;;;;;;11.90;3.23;;;-8.10;99.90;;;;;;2214662;64;20101;-36
2021/12/30 09:05:29;;;;;;;10.67;2.40;;;-7.90;99.90;;;;;;2214764;64;20097;-35
2021/12/30 09:07:58;;;;;;;9.83;3.40;;;-8.10;99.30;;;;;;2214797;64;20615;-36
2021/12/30 09:10:27;;;;;;;4.17;1.80;;;-8.10;99.50;;;;;;2214837;64;20100;-35
2021/12/30 09:12:56;;;;;;;4.60;2.33;;;-7.80;99.90;;;;;;2215169;64;20093;-36
2021/12/30 09:15:30;;;;;;;2.90;0.97;;;-7.70;99.90;;;;;;2219695;64;20483;-37
2021/12/30 09:18:01;;;;;;;6.90;2.42;;;-7.50;99.90;;;;;;2219687;64;20096;-38
2021/12/30 09:20:32;;;;;;;5.77;1.90;;;-7.50;99.80;;;;;;2220464;64;20080;-35
2021/12/30 09:23:03;;;;;;;4.60;1.30;;;-7.60;99.20;;;;;;2220315;64;20080;-36
2021/12/30 09:25:31;;;;;;;6.40;1.93;;;-7.60;99.30;;;;;;2220368;64;20488;-41
2021/12/30 09:27:59;;;;;;;5.73;2.00;;;-7.50;99.80;;;;;;2220403;64;20089;-35
2021/12/30 09:30:31;;;;;;;1.27;0.50;;;-7.40;99.80;;;;;;2220417;64;20185;-37
2021/12/30 09:33:01;;;;;;;4.27;1.37;;;-7.30;99.60;;;;;;2220337;64;20432;-36
2021/12/30 09:35:31;;;;;;;3.70;1.43;;;-7.40;98.70;;;;;;2220369;64;20533;-35
2021/12/30 09:38:11;;;;;;;4.17;1.97;;;-7.40;98.50;;;;;;2220297;64;20104;-37
2021/12/30 09:40:44;;;;;;;1.83;1.03;;;-7.30;99.40;;;;;;2220421;64;20092;-36
2021/12/30 09:43:13;;;;;;;8.97;3.07;;;-7.30;98.70;;;;;;2220295;64;20092;-37
2021/12/30 09:45:41;;;;;;;2.67;1.40;;;-7.20;98.70;;;;;;2219575;64;20103;-37
2021/12/30 09:48:11;;;;;;;7.93;2.47;;;-7.30;98.90;;;;;;2220083;64;20108;-36
2021/12/30 09:50:42;;;;;;;5.40;2.27;;;-7.30;98.50;;;;;;2219680;64;20104;-37
2021/12/30 09:53:12;;;;;;;7.00;3.03;;;-7.40;98.70;;;;;;2216271;64;20162;-36
2021/12/30 09:55:42;;;;;;;4.97;2.87;;;-7.30;99.00;;;;;;2219648;64;20084;-37
2021/12/30 09:58:09;;;;;;;6.27;3.50;;;-7.30;99.20;;;;;;2220183;64;20628;-36
2021/12/30 10:00:39;;;;;;;6.47;2.27;;;-7.30;99.00;;;;;;2220149;64;20076;-37
2021/12/30 10:03:06;;;;;;;5.90;1.77;;;-7.40;98.30;;;;;;2220023;64;20402;-38
2021/12/30 10:05:35;;;;;;;6.20;2.33;;;-7.60;98.10;;;;;;2220212;64;20085;-36
2021/12/30 10:08:18;;;;;;;4.17;1.90;;;-7.60;98.60;;;;;;2219954;64;20097;-35
2021/12/30 10:10:47;;;;;;;4.50;2.70;;;-7.80;97.60;;;;;;2220239;64;20107;-36
2021/12/30 10:13:22;;;;;;;7.93;3.20;;;-8.00;97.90;;;;;;2220107;64;20110;-38
2021/12/30 10:15:58;;;;;;;8.87;2.83;;;-7.80;98.90;;;;;;2219610;64;20170;-36
2021/12/30 10:18:26;;;;;;;6.87;3.03;;;-7.80;98.70;;;;;;2220760;64;20123;-37
2021/12/30 10:20:52;;;;;;;7.30;2.90;;;-7.70;98.90;;;;;;2220271;64;20101;-36
2021/12/30 10:23:23;;;;;;;5.07;2.00;;;-7.80;98.70;;;;;;2220795;64;20088;-40
2021/12/30 10:25:52;;;;;;;8.57;2.73;;;-7.70;98.80;;;;;;2220657;64;20606;-37
2021/12/30 10:28:25;;;;;;;6.60;3.67;;;-7.80;98.80;;;;;;2220731;64;20630;-40
2021/12/30 10:31:01;;;;;;;6.00;3.30;;;-7.80;98.70;;;;;;2220704;64;20085;-40
2021/12/30 10:33:28;;;;;;;6.30;3.17;;;-7.80;98.30;;;;;;2220767;64;20093;-42
2021/12/30 10:35:56;;;;;;;3.63;1.30;;;-8.10;97.50;;;;;;2220786;64;20155;-35
2021/12/30 10:38:28;;;;;;;3.50;1.53;;;-8.00;98.60;;;;;;2220979;64;20097;-37
2021/12/30 10:40:55;;;;;;;7.43;2.77;;;-8.00;98.90;;;;;;2220707;64;20168;-37
2021/12/30 10:43:37;;;;;;;8.90;3.67;;;-8.10;99.00;;;;;;2220223;64;20553;-37
2021/12/30 10:46:22;;;;;;;6.30;3.00;;;-8.30;98.30;;;;;;2220826;64;20096;-37
2021/12/30 10:49:05;;;;;;;7.10;3.33;;;-8.30;98.70;;;;;;2220916;64;20469;-37
2021/12/30 10:51:37;;;;;;;6.97;2.50;;;-8.30;98.80;;;;;;2221143;64;20100;-37
2021/12/30 10:54:14;;;;;;;6.87;3.27;;;-8.30;98.70;;;;;;2220699;64;20592;-36
2021/12/30 10:56:46;;;;;;;4.33;2.07;;;-8.30;98.70;;;;;;2220803;64;20108;-37
2021/12/30 10:59:17;;;;;;;2.80;1.07;;;-8.40;98.80;;;;;;2219907;64;20089;-36
2021/12/30 11:01:55;;;;;;;8.73;2.87;;;-8.30;98.80;;;;;;2220707;64;20104;-36
2021/12/30 11:04:31;;;;;;;10.07;3.70;;;-8.40;98.80;;;;;;2220770;64;20173;-35
2021/12/30 11:07:05;;;;;;;8.10;3.03;;;-8.40;98.70;;;;;;2220115;64;20096;-35
2021/12/30 11:09:31;;;;;;;10.33;3.80;;;-8.40;98.80;;;;;;2220538;64;20564;-36
2021/12/30 11:12:00;;;;;;;5.30;2.13;;;-8.40;98.90;;;;;;2220690;64;20089;-37
2021/12/30 11:14:33;;;;;;;8.30;2.20;;;-8.40;98.90;;;;;;2220625;64;20080;-36
2021/12/30 11:17:10;;;;;;;3.60;1.87;;;-8.60;98.40;;;;;;2220685;64;20100;-35
2021/12/30 11:19:45;;;;;;;5.40;1.00;;;-8.60;98.90;;;;;;2220714;64;20127;-37
2021/12/30 11:22:18;;;;;;;4.00;2.07;;;-8.60;98.90;;;;;;2220576;64;20102;-36
2021/12/30 11:24:47;;;;;;;6.17;2.27;;;-8.60;99.20;;;;;;2220601;64;20586;-39
2021/12/30 11:27:21;;;;;;;8.10;1.63;;;-8.60;99.20;;;;;;2216774;64;20085;-36
2021/12/30 11:29:49;;;;;;;8.67;3.73;;;-8.60;99.40;;;;;;2220916;64;20081;-35
2021/12/30 11:32:19;;;;;;;6.17;2.17;;;-8.60;99.40;;;;;;2220613;64;20136;-35
2021/12/30 11:34:49;;;;;;;6.90;2.60;;;-8.50;99.30;;;;;;2220729;64;20092;-40
2021/12/30 11:37:21;;;;;;;1.20;0.73;;;-8.60;99.00;;;;;;2219752;64;20100;-37
2021/12/30 11:39:50;;;;;;;6.90;3.03;;;-8.60;99.10;;;;;;2220002;64;20096;-35
2021/12/30 11:42:23;;;;;;;7.27;2.77;;;-8.60;99.10;;;;;;2219954;64;20100;-37
2021/12/30 11:45:00;;;;;;;7.97;3.20;;;-8.60;99.10;;;;;;2220646;64;20092;-37
2021/12/30 11:47:36;;;;;;;8.10;3.53;;;-8.70;99.20;;;;;;2220628;64;20103;-36
2021/12/30 11:50:20;;;;;;;;;;;-8.60;99.00;;;;;;2220880;64;20555;-37
2021/12/30 11:52:49;;;;;;;3.43;1.43;;;-8.60;99.00;;;;;;2220455;64;19991;-37
2021/12/30 11:55:47;;;;;;;7.13;2.70;;;-8.80;98.20;;;;;;2219904;64;20116;-36
2021/12/30 12:01:25;;;;;;;6.83;1.47;;;-8.70;99.00;;;;;;2220370;64;20077;-37
2021/12/30 12:03:54;;;;;;;4.70;1.50;;;-8.70;99.00;;;;;;2218732;64;20544;-39
2021/12/30 12:06:25;;;;;;;4.00;1.27;;;-8.90;98.80;;;;;;2220519;64;20099;-44
2021/12/30 12:08:54;;;;;;;6.93;2.40;;;-8.90;99.10;;;;;;2220532;64;20093;-37
2021/12/30 12:11:31;;;;;;;12.17;3.90;;;-8.90;98.70;;;;;;2222873;64;20081;-44
2021/12/30 12:14:23;;;;;;;7.90;2.97;;;-8.90;99.10;;;;;;2219889;64;20164;-45
2021/12/30 12:16:55;;;;;;;14.10;3.43;;;-8.90;99.20;;;;;;2220488;64;20446;-36
2021/12/30 12:19:41;;;;;;;4.07;1.30;;;-8.90;99.30;;;;;;2220604;64;20096;-37
2021/12/30 12:22:20;;;;;;;5.70;1.40;;;-9.00;98.60;;;;;;2220661;64;20426;-36
2021/12/30 12:25:11;;;;;;;5.20;2.50;;;-8.90;98.90;;;;;;2219625;64;20085;-39
2021/12/30 12:27:45;;;;;;;2.63;1.10;;;-9.00;98.70;;;;;;2220598;64;20088;-36
2021/12/30 12:30:25;;;;;;;7.10;3.40;;;-9.10;98.50;;;;;;2220002;64;20085;-46
2021/12/30 12:32:52;;;;;;;5.63;2.10;;;-9.10;98.60;;;;;;2220473;64;20194;-35
2021/12/30 12:35:20;;;;;;;6.50;3.67;;;-9.00;98.90;;;;;;2220522;64;20494;-37
2021/12/30 12:37:55;;;;;;;5.50;1.73;;;-9.10;98.90;;;;;;2220241;64;20089;-41
2021/12/30 12:40:37;;;;;;;11.83;2.77;;;-9.00;98.80;;;;;;2220299;64;20097;-36
2021/12/30 12:43:05;;;;;;;2.63;1.13;;;-9.00;99.10;;;;;;2219867;64;20081;-37
2021/12/30 12:45:38;;;;;;;5.07;2.53;;;-9.00;99.00;;;;;;2220593;64;20107;-36
2021/12/30 12:48:20;;;;;;;3.53;0.87;;;-9.00;98.90;;;;;;2220434;64;20097;-36
2021/12/30 12:50:53;;;;;;;6.27;3.60;;;-9.00;98.70;;;;;;2220304;64;20150;-35
2021/12/30 12:53:23;;;;;;;3.20;1.77;;;-9.10;98.70;;;;;;2220270;64;20100;-35
2021/12/30 12:55:55;;;;;;;4.13;1.20;;;-9.10;98.60;;;;;;2220353;64;20089;-35